createdAt,value
2023-09-07T00:02:06.300Z,1021.25
2023-09-07T00:04:32.915Z,1100.20
2023-09-07T00:07:00.363Z,1039.68
2023-09-07T00:09:27.910Z,1080.72
2023-09-07T00:11:54.343Z,1192.40
2023-09-07T00:14:20.806Z,1232.53
2023-09-07T00:16:47.414Z,1123.40
2023-09-07T00:19:13.897Z,1127.30
2023-09-07T00:21:40.331Z,1300.75
2023-09-07T00:24:07.249Z,1210.93
2023-09-07T00:26:33.881Z,1244.30
2023-09-07T00:29:00.408Z,1166.03
2023-09-07T00:31:27.068Z,1132.57
2023-09-07T00:33:53.633Z,1147.10
2023-09-07T00:36:20.124Z,1110.15
2023-09-07T00:38:46.581Z,1101.90
2023-09-07T00:41:14.545Z,1155.70
2023-09-07T00:43:42.137Z,1079.35
2023-09-07T00:46:09.314Z,1163.32
2023-09-07T00:48:36.201Z,1228.93
2023-09-07T00:51:02.706Z,1499.95
2023-09-07T00:53:29.343Z,1472.75
2023-09-07T00:55:56.831Z,1632.47
2023-09-07T00:58:23.391Z,1719.07
2023-09-07T01:00:50.008Z,1704.07
2023-09-07T01:03:16.636Z,1959.35
2023-09-07T01:05:59.257Z,1971.28
2023-09-07T01:08:33.145Z,1838.22
2023-09-07T01:10:59.917Z,1640.72
2023-09-07T01:13:26.328Z,1483.55
2023-09-07T01:15:53.464Z,1933.35
2023-09-07T01:18:38.549Z,1955.30
2023-09-07T01:21:08.458Z,1748.00
2023-09-07T01:23:40.446Z,1903.97
2023-09-07T01:26:09.350Z,1999.90
2023-09-07T01:28:36.542Z,1932.78
2023-09-07T01:31:03.073Z,1925.53
2023-09-07T01:33:29.600Z,1919.78
2023-09-07T01:35:56.318Z,1808.45
2023-09-07T01:38:23.016Z,1999.65
2023-09-07T01:40:49.479Z,1999.90
2023-09-07T01:43:15.898Z,1999.90
2023-09-07T01:45:42.373Z,1999.90
2023-09-07T01:48:13.401Z,1999.90
2023-09-07T01:50:39.815Z,1985.63
2023-09-07T01:53:06.339Z,1999.90
2023-09-07T01:55:33.465Z,1832.30
2023-09-07T01:58:00.044Z,1822.90
2023-09-07T02:00:26.469Z,1678.97
2023-09-07T02:02:54.004Z,1589.70
2023-09-07T02:05:20.585Z,1534.53
2023-09-07T02:07:47.241Z,1500.40
2023-09-07T02:10:13.597Z,1311.32
2023-09-07T02:12:39.999Z,1712.60
2023-09-07T02:15:06.996Z,1798.88
2023-09-07T02:17:33.696Z,1669.90
2023-09-07T02:20:00.227Z,1451.60
2023-09-07T02:22:26.705Z,1750.60
2023-09-07T02:24:53.265Z,1848.40
2023-09-07T02:27:19.687Z,1557.45
2023-09-07T02:29:46.381Z,1541.85
2023-09-07T02:32:13.368Z,1738.15
2023-09-07T02:34:39.753Z,1468.47
2023-09-07T02:37:06.144Z,1407.47
2023-09-07T02:39:32.564Z,1757.72
2023-09-07T02:41:58.998Z,1501.60
2023-09-07T02:44:25.404Z,1991.03
2023-09-07T02:46:51.850Z,1881.47
2023-09-07T02:49:18.297Z,1999.90
2023-09-07T02:51:45.081Z,1941.25
2023-09-07T02:54:11.499Z,1822.78
2023-09-07T02:56:38.024Z,1884.68
2023-09-07T02:59:04.490Z,1693.32
2023-09-07T03:01:31.492Z,1418.85
2023-09-07T03:03:58.172Z,1529.45
2023-09-07T03:06:24.781Z,1762.65
2023-09-07T03:08:53.115Z,1667.35
2023-09-07T03:11:19.577Z,1671.85
2023-09-07T03:13:46.155Z,1698.65
2023-09-07T03:16:13.504Z,1685.10
2023-09-07T03:18:40.107Z,1561.90
2023-09-07T03:21:06.570Z,1602.90
2023-09-07T03:23:34.060Z,1171.88
2023-09-07T03:26:01.040Z,1458.45
2023-09-07T03:28:27.543Z,1261.30
2023-09-07T03:30:57.139Z,1401.32
2023-09-07T03:33:23.848Z,1602.30
2023-09-07T03:35:52.808Z,1490.68
2023-09-07T03:38:19.723Z,1310.80
2023-09-07T03:40:46.267Z,1358.18
2023-09-07T03:43:12.797Z,1428.75
2023-09-07T03:45:39.331Z,1492.35
2023-09-07T03:48:06.420Z,1368.30
2023-09-07T03:50:32.874Z,1289.80
2023-09-07T03:52:59.347Z,1240.03
2023-09-07T03:55:25.828Z,1409.07
2023-09-07T03:57:52.245Z,1420.78
2023-09-07T04:00:22.017Z,1141.28
2023-09-07T04:02:48.654Z,1100.85
2023-09-07T04:05:15.312Z,1190.45
2023-09-07T04:07:41.722Z,1104.50
2023-09-07T04:10:08.540Z,1240.93
2023-09-07T04:12:35.233Z,1272.22
2023-09-07T04:15:05.260Z,1303.05
2023-09-07T04:17:33.765Z,1361.13
2023-09-07T04:20:00.249Z,1432.45
2023-09-07T04:22:26.627Z,1940.28
2023-09-07T04:24:53.054Z,1579.65
2023-09-07T04:27:19.510Z,1770.63
2023-09-07T04:29:45.992Z,1533.55
2023-09-07T04:32:12.466Z,1963.00
2023-09-07T04:34:38.908Z,1671.40
2023-09-07T04:37:05.399Z,1999.90
2023-09-07T04:39:31.892Z,1827.03
2023-09-07T04:41:58.325Z,1999.90
2023-09-07T04:44:24.756Z,1999.90
2023-09-07T04:46:52.860Z,1999.90
2023-09-07T04:49:19.392Z,1999.90
2023-09-07T04:51:45.761Z,1999.90
2023-09-07T04:54:12.234Z,1999.90
2023-09-07T04:56:38.695Z,1999.90
2023-09-07T04:59:05.500Z,1999.90
2023-09-07T05:01:33.358Z,1999.90
2023-09-07T05:03:59.919Z,1999.90
2023-09-07T05:06:27.439Z,1999.90
2023-09-07T05:08:53.999Z,1999.90
2023-09-07T05:11:20.465Z,1999.90
2023-09-07T05:13:46.863Z,1999.90
2023-09-07T05:16:13.693Z,1999.90
2023-09-07T05:18:42.377Z,1999.90
2023-09-07T05:21:16.080Z,1999.90
2023-09-07T05:23:42.889Z,1999.90
2023-09-07T05:26:09.347Z,1999.90
2023-09-07T05:28:35.851Z,1742.82
2023-09-07T05:31:02.332Z,1770.45
2023-09-07T05:33:28.773Z,1933.75
2023-09-07T05:35:55.350Z,1999.90
2023-09-07T05:38:21.802Z,1995.95
2023-09-07T05:40:51.364Z,1999.90
2023-09-07T05:43:17.823Z,1986.82
2023-09-07T05:45:44.335Z,1873.18
2023-09-07T05:48:10.780Z,1999.90
2023-09-07T05:50:38.897Z,1999.90
2023-09-07T05:53:05.715Z,1999.90
2023-09-07T05:55:32.545Z,1999.90
2023-09-07T05:57:59.391Z,1999.90
2023-09-07T06:00:26.228Z,1999.90
2023-09-07T06:02:53.173Z,1999.90
2023-09-07T06:05:19.932Z,1999.90
2023-09-07T06:07:46.465Z,1836.03
2023-09-07T06:10:13.156Z,1999.90
2023-09-07T06:12:39.666Z,1999.90
2023-09-07T06:15:06.757Z,1999.90
2023-09-07T06:17:33.193Z,1999.90
2023-09-07T06:19:59.797Z,1999.90
2023-09-07T06:22:26.352Z,1999.90
2023-09-07T06:24:52.872Z,1999.90
2023-09-07T06:27:19.396Z,1999.90
2023-09-07T06:29:45.817Z,1999.90
2023-09-07T06:32:12.378Z,1999.90
2023-09-07T06:34:38.869Z,1999.90
2023-09-07T06:37:05.879Z,1999.90
2023-09-07T06:39:32.577Z,1999.90
2023-09-07T06:41:59.206Z,1999.90
2023-09-07T06:44:25.684Z,1999.90
2023-09-07T06:46:52.192Z,1999.90
2023-09-07T06:49:18.585Z,1999.90
2023-09-07T06:51:45.088Z,1999.90
2023-09-07T06:54:14.889Z,1999.90
2023-09-07T06:56:41.375Z,1999.90
2023-09-07T06:59:07.794Z,1999.90
2023-09-07T07:01:35.048Z,1999.90
2023-09-07T07:04:01.719Z,1999.90
2023-09-07T07:06:28.307Z,1999.90
2023-09-07T07:08:54.746Z,1999.90
2023-09-07T07:11:21.744Z,1999.90
2023-09-07T07:13:49.602Z,1999.90
2023-09-07T07:16:18.072Z,1596.50
2023-09-07T07:18:51.323Z,1778.25
2023-09-07T07:21:17.797Z,1999.90
2023-09-07T07:23:44.283Z,1973.22
2023-09-07T07:26:10.752Z,1999.90
2023-09-07T07:28:37.215Z,1999.90
2023-09-07T07:31:11.407Z,1999.90
2023-09-07T07:33:38.413Z,1999.90
2023-09-07T07:36:06.087Z,1999.90
2023-09-07T07:38:32.645Z,1999.90
2023-09-07T07:40:59.346Z,1999.90
2023-09-07T07:43:26.065Z,1999.90
2023-09-07T07:45:55.913Z,1999.90
2023-09-07T07:48:22.779Z,1999.90
2023-09-07T07:50:49.265Z,1999.90
2023-09-07T07:53:16.495Z,1999.90
2023-09-07T07:55:43.336Z,1999.90
2023-09-07T07:58:10.766Z,1999.90
2023-09-07T08:00:39.020Z,1999.90
2023-09-07T08:03:09.272Z,1999.90
2023-09-07T08:05:36.549Z,1999.90
2023-09-07T08:08:03.924Z,1999.90
2023-09-07T08:10:32.643Z,1999.90
2023-09-07T08:12:59.392Z,1999.90
2023-09-07T08:15:26.301Z,1999.90
2023-09-07T08:17:53.616Z,1999.90
2023-09-07T08:20:20.576Z,1999.90
2023-09-07T08:22:47.444Z,1999.90
2023-09-07T08:25:15.163Z,1999.90
2023-09-07T08:27:45.350Z,1889.25
2023-09-07T08:30:16.981Z,1749.88
2023-09-07T08:32:43.945Z,1999.90
2023-09-07T08:35:14.799Z,1999.90
2023-09-07T08:37:41.436Z,1999.90
2023-09-07T08:40:08.800Z,1982.97
2023-09-07T08:42:39.449Z,1999.90
2023-09-07T08:45:09.019Z,1999.90
2023-09-07T08:47:36.908Z,1563.95
2023-09-07T08:50:03.827Z,1999.90
2023-09-07T08:52:30.927Z,1691.00
2023-09-07T08:55:01.805Z,1452.85
2023-09-07T08:57:30.913Z,1614.13
2023-09-07T08:59:57.388Z,1514.40
2023-09-07T09:02:24.843Z,1568.18
2023-09-07T09:04:54.786Z,1936.63
2023-09-07T09:07:23.090Z,1628.57
2023-09-07T09:10:05.541Z,1789.70
2023-09-07T09:12:32.244Z,1999.90
2023-09-07T09:15:00.249Z,1999.90
2023-09-07T09:17:26.761Z,1999.90
2023-09-07T09:19:53.232Z,1999.90
2023-09-07T09:22:21.171Z,1999.90
2023-09-07T09:24:51.305Z,1999.90
2023-09-07T09:27:18.309Z,1999.90
2023-09-07T09:29:45.777Z,1463.72
2023-09-07T09:32:15.026Z,1928.05
2023-09-07T09:34:44.844Z,1999.90
2023-09-07T09:37:16.307Z,1602.35
2023-09-07T09:39:43.374Z,997.40
2023-09-07T09:42:10.360Z,1607.25
2023-09-07T09:44:41.105Z,1412.10
2023-09-07T09:47:09.273Z,599.13
2023-09-07T09:49:36.724Z,576.60
2023-09-07T09:52:05.146Z,969.60
2023-09-07T09:54:35.988Z,181.80
2023-09-07T09:57:02.669Z,388.55
2023-09-07T09:59:29.109Z,477.83
2023-09-07T10:02:00.524Z,226.50
2023-09-07T10:04:27.298Z,547.17
2023-09-07T10:07:06.182Z,654.42
2023-09-07T10:09:37.905Z,333.92
2023-09-07T10:12:09.063Z,165.68
2023-09-07T10:14:42.372Z,193.93
2023-09-07T10:17:10.782Z,189.13
2023-09-07T10:19:39.270Z,170.57
2023-09-07T10:22:05.783Z,192.00
2023-09-07T10:24:37.417Z,190.70
2023-09-07T10:27:06.940Z,182.27
2023-09-07T10:29:56.527Z,129.73
2023-09-07T10:32:23.629Z,229.98
2023-09-07T10:34:51.205Z,114.97
2023-09-07T10:37:17.859Z,93.25
2023-09-07T10:39:45.653Z,60.42
2023-09-07T10:42:26.067Z,64.85
2023-09-07T10:44:53.432Z,48.10
2023-09-07T10:47:20.020Z,55.65
2023-09-07T10:49:46.603Z,60.40
2023-09-07T10:52:13.790Z,61.55
2023-09-07T10:54:40.288Z,79.85
2023-09-07T10:57:19.371Z,82.07
2023-09-07T10:59:47.068Z,78.95
2023-09-07T11:02:14.095Z,67.38
2023-09-07T11:04:40.637Z,62.03
2023-09-07T11:07:07.629Z,31.67
2023-09-07T11:09:34.192Z,31.20
2023-09-07T11:12:07.000Z,29.13
2023-09-07T11:14:33.544Z,23.90
2023-09-07T11:17:02.192Z,34.80
2023-09-07T11:19:28.769Z,42.60
2023-09-07T11:21:55.522Z,43.08
2023-09-07T11:24:22.227Z,43.40
2023-09-07T11:26:48.850Z,46.63
2023-09-07T11:29:16.780Z,44.70
2023-09-07T11:31:46.120Z,53.78
2023-09-07T11:34:16.514Z,61.10
2023-09-07T11:36:44.569Z,60.58
2023-09-07T11:39:14.675Z,54.38
2023-09-07T11:41:45.276Z,56.25
2023-09-07T11:44:12.957Z,57.45
2023-09-07T11:46:40.354Z,53.28
2023-09-07T11:49:12.179Z,56.80
2023-09-07T11:51:38.825Z,49.80
2023-09-07T11:54:06.161Z,53.65
2023-09-07T11:56:32.699Z,59.30
2023-09-07T11:58:59.218Z,54.35
2023-09-07T12:01:27.476Z,55.08
2023-09-07T12:03:54.115Z,78.00
2023-09-07T12:06:22.852Z,56.22
2023-09-07T12:09:18.084Z,55.13
2023-09-07T12:11:44.746Z,53.20
2023-09-07T12:14:11.364Z,53.60
2023-09-07T12:16:38.461Z,54.42
2023-09-07T12:19:05.051Z,48.60
2023-09-07T12:21:31.546Z,56.67
2023-09-07T12:23:57.985Z,50.63
2023-09-07T12:26:24.433Z,43.90
2023-09-07T12:28:50.834Z,31.35
2023-09-07T12:31:17.847Z,58.55
2023-09-07T12:33:44.626Z,29.10
2023-09-07T12:36:12.608Z,37.40
2023-09-07T12:38:39.249Z,41.80
2023-09-07T12:41:05.792Z,30.75
2023-09-07T12:43:35.116Z,28.50
2023-09-07T12:46:02.220Z,37.00
2023-09-07T12:48:28.768Z,34.80
2023-09-07T12:51:02.905Z,29.15
2023-09-07T12:53:30.377Z,31.02
2023-09-07T12:55:57.339Z,31.27
2023-09-07T12:58:23.819Z,35.65
2023-09-07T13:00:52.168Z,33.42
2023-09-07T13:03:20.392Z,38.20
2023-09-07T13:05:55.404Z,36.45
2023-09-07T13:08:21.824Z,42.33
2023-09-07T13:10:48.337Z,25.52
2023-09-07T13:13:18.243Z,28.48
2023-09-07T13:15:44.835Z,31.75
2023-09-07T13:18:13.717Z,31.88
2023-09-07T13:20:46.383Z,32.08
2023-09-07T13:23:12.889Z,35.88
2023-09-07T13:25:39.617Z,39.08
2023-09-07T13:28:06.355Z,39.25
2023-09-07T13:30:35.600Z,38.50
2023-09-07T13:33:02.349Z,34.67
2023-09-07T13:35:31.444Z,37.08
2023-09-07T13:38:01.584Z,47.42
2023-09-07T13:43:11.500Z,32.50
2023-09-07T13:45:38.184Z,18.88
2023-09-07T13:48:05.907Z,18.25
2023-09-07T13:50:32.638Z,16.70
2023-09-07T13:53:03.431Z,19.73
2023-09-07T13:55:29.918Z,21.85
2023-09-07T13:57:56.313Z,23.15
2023-09-07T14:00:22.922Z,26.45
2023-09-07T14:02:49.580Z,30.52
2023-09-07T14:05:16.098Z,23.63
2023-09-07T14:07:42.508Z,32.90
2023-09-07T14:10:09.167Z,32.85
2023-09-07T14:12:35.604Z,34.92
2023-09-07T14:15:02.080Z,34.72
2023-09-07T14:17:28.620Z,52.40
2023-09-07T14:19:55.107Z,41.80
2023-09-07T14:22:21.496Z,35.58
2023-09-07T14:24:47.953Z,209.18
2023-09-07T14:27:14.518Z,39.90
2023-09-07T14:29:40.922Z,39.45
2023-09-07T14:32:07.407Z,40.67
2023-09-07T14:34:34.336Z,39.28
2023-09-07T14:37:00.782Z,36.80
2023-09-07T14:39:27.295Z,38.53
2023-09-07T14:41:54.442Z,35.75
2023-09-07T14:44:22.059Z,33.90
2023-09-07T14:46:50.551Z,35.80
2023-09-07T14:49:18.770Z,35.17
2023-09-07T14:51:46.410Z,35.03
2023-09-07T14:54:13.420Z,35.78
2023-09-07T14:56:40.602Z,31.95
2023-09-07T14:59:07.921Z,33.05
2023-09-07T15:01:34.393Z,34.78
2023-09-07T15:04:00.858Z,32.35
2023-09-07T15:06:27.308Z,32.10
2023-09-07T15:08:53.805Z,31.23
2023-09-07T15:11:23.233Z,33.88
2023-09-07T15:13:51.012Z,33.60
2023-09-07T15:16:17.467Z,35.25
2023-09-07T15:18:45.354Z,33.60
2023-09-07T15:21:12.128Z,30.90
2023-09-07T15:23:38.533Z,33.08
2023-09-07T15:26:04.923Z,34.78
2023-09-07T15:28:32.585Z,35.35
2023-09-07T15:30:59.178Z,38.40
2023-09-07T15:33:25.760Z,32.80
2023-09-07T15:35:52.443Z,30.50
2023-09-07T15:38:19.090Z,31.65
2023-09-07T15:40:47.815Z,32.15
2023-09-07T15:43:14.214Z,32.70
2023-09-07T15:45:40.750Z,34.70
2023-09-07T15:48:07.744Z,32.13
2023-09-07T15:50:34.937Z,36.67
2023-09-07T15:53:01.432Z,31.63
2023-09-07T15:55:27.972Z,32.33
2023-09-07T15:57:54.902Z,32.10
2023-09-07T16:00:21.431Z,36.65
2023-09-07T16:02:48.029Z,37.30
2023-09-07T16:05:14.701Z,37.35
2023-09-07T16:07:41.237Z,36.13
2023-09-07T16:10:08.371Z,34.90
2023-09-07T16:12:34.895Z,35.10
2023-09-07T16:15:01.408Z,34.50
2023-09-07T16:17:28.263Z,35.90
2023-09-07T16:19:54.864Z,35.08
2023-09-07T16:22:21.285Z,42.00
2023-09-07T16:24:47.994Z,41.88
2023-09-07T16:27:14.414Z,41.42
2023-09-07T16:29:44.351Z,51.97
2023-09-07T16:32:13.362Z,46.25
2023-09-07T16:34:40.302Z,39.50
2023-09-07T16:37:06.810Z,46.67
2023-09-07T16:39:34.939Z,42.22
2023-09-07T16:42:02.116Z,32.30
2023-09-07T16:44:28.574Z,35.60
2023-09-07T16:46:54.977Z,36.38
2023-09-07T16:49:24.163Z,37.90
2023-09-07T16:51:50.861Z,41.22
2023-09-07T16:54:19.243Z,40.22
2023-09-07T16:56:45.788Z,41.00
2023-09-07T17:01:41.605Z,46.78
2023-09-07T17:04:08.035Z,49.75
2023-09-07T17:06:35.794Z,64.30
2023-09-07T17:09:02.798Z,64.13
2023-09-07T17:11:29.274Z,58.05
2023-09-07T17:14:01.631Z,50.20
2023-09-07T17:16:28.921Z,55.70
2023-09-07T17:18:55.304Z,48.90
2023-09-07T17:21:21.739Z,83.75
2023-09-07T17:23:48.253Z,60.30
2023-09-07T17:26:14.720Z,126.22
2023-09-07T17:28:41.196Z,114.80
2023-09-07T17:31:14.384Z,139.57
2023-09-07T17:33:40.931Z,108.80
2023-09-07T17:36:16.149Z,243.55
2023-09-07T17:38:42.679Z,129.00
2023-09-07T17:41:14.714Z,106.90
2023-09-07T17:43:41.782Z,319.48
2023-09-07T17:46:09.065Z,532.03
2023-09-07T17:48:35.861Z,553.75
2023-09-07T17:51:03.850Z,587.20
2023-09-07T17:53:30.291Z,779.38
2023-09-07T17:55:56.737Z,811.78
2023-09-07T17:58:23.300Z,777.38
2023-09-07T18:00:49.800Z,985.47
2023-09-07T18:03:16.342Z,1144.03
2023-09-07T18:05:43.003Z,1043.03
2023-09-07T18:08:09.392Z,820.13
2023-09-07T18:10:36.828Z,736.33
2023-09-07T18:13:03.467Z,748.70
2023-09-07T18:15:29.964Z,802.15
2023-09-07T18:17:56.486Z,884.45
2023-09-07T18:20:23.351Z,1100.75
2023-09-07T18:22:49.742Z,1037.68
2023-09-07T18:25:16.230Z,896.40
2023-09-07T18:27:42.843Z,1000.33
2023-09-07T18:30:09.597Z,1999.90
2023-09-07T18:32:36.588Z,1999.90
2023-09-07T18:35:03.474Z,1816.85
2023-09-07T18:37:33.194Z,1999.90
2023-09-07T18:39:59.581Z,1999.90
2023-09-07T18:42:26.011Z,1999.90
2023-09-07T18:44:53.590Z,1999.90
2023-09-07T18:47:20.844Z,1999.90
2023-09-07T18:49:47.487Z,1999.90
2023-09-07T18:52:14.056Z,1278.47
2023-09-07T18:54:40.439Z,1370.00
2023-09-07T18:57:06.959Z,1916.45
2023-09-07T18:59:34.747Z,1755.63
2023-09-07T19:02:01.327Z,1703.28
2023-09-07T19:04:30.561Z,1708.50
2023-09-07T19:06:56.926Z,1614.47
2023-09-07T19:09:24.825Z,1614.65
2023-09-07T19:11:52.381Z,1525.90
2023-09-07T19:14:18.865Z,1460.72
2023-09-07T19:16:45.333Z,1531.38
2023-09-07T19:19:11.781Z,1590.18
2023-09-07T19:21:43.694Z,1493.30
2023-09-07T19:24:10.291Z,1453.72
2023-09-07T19:26:40.274Z,1669.70
2023-09-07T19:29:09.680Z,1698.35
2023-09-07T19:31:42.602Z,1251.25
2023-09-07T19:34:10.021Z,1086.90
2023-09-07T19:36:36.989Z,1253.60
2023-09-07T19:39:06.432Z,1132.53
2023-09-07T19:41:35.410Z,1256.13
2023-09-07T19:44:29.684Z,1058.10
2023-09-07T19:46:57.294Z,961.90
2023-09-07T19:49:30.530Z,959.67
2023-09-07T19:52:07.439Z,883.22
2023-09-07T19:54:42.768Z,1191.72
2023-09-07T19:57:13.614Z,550.78
2023-09-07T20:06:27.548Z,117.05
2023-09-07T20:09:25.216Z,176.43
2023-09-07T20:16:24.338Z,210.18
2023-09-07T20:18:53.336Z,220.40
2023-09-07T20:21:22.636Z,376.67
2023-09-07T20:23:56.687Z,612.30
2023-09-07T20:26:23.220Z,691.83
2023-09-07T20:28:51.492Z,820.75
2023-09-07T20:31:18.125Z,345.27
2023-09-07T20:33:48.242Z,833.80
2023-09-07T20:36:17.728Z,739.90
2023-09-07T20:38:45.554Z,656.45
2023-09-07T20:41:14.505Z,610.75
2023-09-07T20:43:43.223Z,701.85
2023-09-07T20:46:09.796Z,696.80
2023-09-07T20:48:36.588Z,973.28
2023-09-07T20:51:05.454Z,315.75
2023-09-07T20:53:32.472Z,898.42
2023-09-07T20:55:59.469Z,981.45
2023-09-07T20:58:26.312Z,1332.88
2023-09-07T21:00:52.995Z,717.95
2023-09-07T21:03:21.386Z,822.58
2023-09-07T21:05:49.912Z,812.67
2023-09-07T21:08:16.424Z,350.77
2023-09-07T21:10:42.945Z,496.70
2023-09-07T21:13:09.474Z,788.55
2023-09-07T21:15:36.070Z,555.92
2023-09-07T21:18:02.913Z,434.63
2023-09-07T21:20:32.596Z,503.45
2023-09-07T21:23:00.255Z,401.63
2023-09-07T21:25:26.767Z,338.10
2023-09-07T21:27:53.297Z,438.85
2023-09-07T21:30:19.895Z,284.13
2023-09-07T21:32:53.779Z,335.90
2023-09-07T21:35:20.595Z,330.20
2023-09-07T21:37:47.239Z,262.65
2023-09-07T21:40:13.805Z,308.67
2023-09-07T21:42:40.764Z,430.63
2023-09-07T21:45:07.591Z,541.03
2023-09-07T21:47:35.095Z,770.63
2023-09-07T21:50:01.946Z,592.15
2023-09-07T21:52:28.548Z,776.90
2023-09-07T21:54:55.654Z,560.40
2023-09-07T21:57:24.969Z,1012.10
2023-09-07T21:59:52.905Z,976.17
2023-09-07T22:02:38.766Z,925.40
2023-09-07T22:05:08.528Z,784.13
2023-09-07T22:07:35.109Z,530.97
2023-09-07T22:10:02.040Z,804.45
2023-09-07T22:12:28.567Z,566.42
2023-09-07T22:14:57.650Z,1113.85
2023-09-07T22:17:24.294Z,897.85
2023-09-07T22:19:51.506Z,1166.28
2023-09-07T22:22:21.274Z,787.35
2023-09-07T22:24:47.799Z,1080.25
2023-09-07T22:27:14.308Z,729.20
2023-09-07T22:29:40.885Z,771.13
2023-09-07T22:32:07.534Z,829.15
2023-09-07T22:34:36.524Z,1012.85
2023-09-07T22:37:06.818Z,1131.75
2023-09-07T22:39:33.406Z,1056.93
2023-09-07T22:42:00.076Z,1103.22
2023-09-07T22:44:26.756Z,1058.53
2023-09-07T22:46:53.365Z,1131.05
2023-09-07T22:49:19.938Z,1297.10
2023-09-07T22:51:48.527Z,1044.90
2023-09-07T22:54:17.898Z,1177.05
2023-09-07T22:56:44.525Z,1203.68
2023-09-07T22:59:11.348Z,1177.10
2023-09-07T23:01:39.980Z,1184.03
2023-09-07T23:04:08.311Z,1217.57
2023-09-07T23:06:35.921Z,1217.53
2023-09-07T23:09:02.547Z,1192.25
2023-09-07T23:11:29.217Z,1187.63
2023-09-07T23:13:55.724Z,1026.20
2023-09-07T23:16:22.195Z,1055.10
2023-09-07T23:18:48.885Z,1500.45
2023-09-07T23:21:15.507Z,1181.45
2023-09-07T23:23:41.977Z,1478.20
2023-09-07T23:26:08.480Z,1600.47
2023-09-07T23:28:38.287Z,1961.25
2023-09-07T23:31:04.744Z,1999.90
2023-09-07T23:33:32.198Z,1696.55
2023-09-07T23:35:58.965Z,1639.47
2023-09-07T23:38:27.644Z,1662.88
2023-09-07T23:40:54.300Z,1647.57
2023-09-07T23:43:20.966Z,1502.72
2023-09-07T23:45:48.698Z,1432.13
2023-09-07T23:48:15.454Z,1890.80
2023-09-07T23:50:41.982Z,1265.70
2023-09-07T23:53:08.513Z,1515.30
2023-09-07T23:55:37.134Z,1460.72
2023-09-07T23:58:03.736Z,1409.40
